Time;durP1;ratioP1;P1;durP2;ratioP2;P2;SDS_P1;SDS_P2;PMS_P1;PMS_P2;Temp;Humidity;BMP_temperature;BMP_pressure;BME280_temperature;BME280_humidity;BME280_pressure;Samples;Min_cycle;Max_cycle;Signal;HPM_P1;HPM_P2
2023/01/29 00:00:19;;;;;;;;;;;-2.30;99.90;;;;;;5069135;28;19970;-80
2023/01/29 00:02:46;;;;;;;;;;;-2.20;99.90;;;;;;5050540;28;19985;-82
2023/01/29 00:05:13;;;;;;;;;;;-2.20;99.90;;;;;;5068947;28;19932;-82
2023/01/29 00:07:39;;;;;;;;;;;-2.20;99.90;;;;;;5059358;28;19951;-81
2023/01/29 00:10:08;;;;;;;;;;;-2.20;99.90;;;;;;5051058;28;19944;-81
2023/01/29 00:12:35;;;;;;;;;;;-2.20;99.90;;;;;;5063476;28;19935;-82
2023/01/29 00:15:02;;;;;;;;;;;-2.20;99.90;;;;;;5046568;28;19929;-80
2023/01/29 00:17:29;;;;;;;;;;;-2.20;99.90;;;;;;5067866;28;19924;-80
2023/01/29 00:19:55;;;;;;;;;;;-1.70;99.90;;;;;;5068799;28;19932;-80
2023/01/29 00:22:22;;;;;;;;;;;-2.10;99.90;;;;;;5051243;28;19940;-80
2023/01/29 00:24:49;;;;;;;;;;;-2.10;99.90;;;;;;5041060;28;19931;-80
2023/01/29 00:27:17;;;;;;;;;;;-2.10;99.90;;;;;;5064091;28;19928;-81
2023/01/29 00:30:01;;;;;;;;;;;-1.70;99.90;;;;;;5046547;28;20412;-81
2023/01/29 00:32:28;;;;;;;;;;;-2.10;99.90;;;;;;5069816;28;20068;-81
2023/01/29 00:34:54;;;;;;;;;;;-2.10;99.90;;;;;;5046894;28;19974;-80
2023/01/29 00:37:21;;;;;;;;;;;-2.00;99.90;;;;;;5072452;28;19977;-81
2023/01/29 00:39:51;;;;;;;;;;;-2.10;99.90;;;;;;5058697;28;19946;-82
2023/01/29 00:45:04;;;;;;;;;;;-2.20;99.90;;;;;;5073517;28;19936;-80
2023/01/29 00:47:32;;;;;;;;;;;-2.20;99.90;;;;;;5060937;28;19929;-81
2023/01/29 00:49:59;;;;;;;;;;;-2.20;99.90;;;;;;5074044;28;19940;-82
2023/01/29 00:52:28;;;;;;;;;;;-2.30;99.90;;;;;;5054401;28;19939;-80
2023/01/29 00:54:55;;;;;;;;;;;-2.30;99.90;;;;;;5055853;28;20341;-81
2023/01/29 00:57:24;;;;;;;;;;;-2.20;99.90;;;;;;5073988;28;19924;-81
2023/01/29 00:59:51;;;;;;;;;;;-2.30;99.90;;;;;;5055420;28;20420;-82
2023/01/29 01:05:04;;;;;;;;;;;-2.20;99.90;;;;;;5054950;28;19928;-81
2023/01/29 01:07:31;;;;;;;;;;;-2.20;99.90;;;;;;5055247;28;19936;-80
2023/01/29 01:12:44;;;;;;;;;;;-2.30;99.90;;;;;;5048032;28;19929;-82
2023/01/29 01:15:11;;;;;;;;;;;-2.30;99.90;;;;;;5055503;28;19935;-81
2023/01/29 01:17:38;;;;;;;;;;;-2.30;99.90;;;;;;5054435;28;19937;-80
2023/01/29 01:20:05;;;;;;;;;;;-2.30;99.90;;;;;;5055106;28;19928;-81
2023/01/29 01:22:32;;;;;;;;;;;-2.30;99.90;;;;;;5073080;28;20023;-80
2023/01/29 01:24:59;;;;;;;;;;;-2.30;99.90;;;;;;5054553;28;20666;-80
2023/01/29 01:27:26;;;;;;;;;;;-2.30;99.90;;;;;;5066431;28;19928;-81
2023/01/29 01:29:54;;;;;;;;;;;-2.40;99.90;;;;;;5072614;28;20611;-81
2023/01/29 01:32:21;;;;;;;;;;;-2.40;99.90;;;;;;5071882;28;20009;-82
2023/01/29 01:34:47;;;;;;;;;;;-2.40;99.90;;;;;;5062653;28;19936;-81
2023/01/29 01:37:14;;;;;;;;;;;-2.30;99.90;;;;;;5053895;28;19924;-82
2023/01/29 01:39:41;;;;;;;;;;;-3.70;99.90;;;;;;5054428;28;19935;-81
2023/01/29 01:42:11;;;;;;;;;;;-2.30;99.90;;;;;;5050321;28;19929;-82
2023/01/29 01:45:00;;;;;;;;;;;-2.20;99.90;;;;;;5074250;28;19928;-82
2023/01/29 01:47:29;;;;;;;;;;;-2.20;99.90;;;;;;5055258;28;19935;-82
2023/01/29 01:49:59;;;;;;;;;;;-2.10;99.90;;;;;;5079056;28;19929;-81
2023/01/29 01:52:26;;;;;;;;;;;-2.20;99.90;;;;;;5074533;28;19978;-82
2023/01/29 01:54:53;;;;;;;;;;;-2.20;99.90;;;;;;5054950;28;20027;-82
2023/01/29 01:57:25;;;;;;;;;;;-2.10;99.90;;;;;;5073946;28;20397;-83
2023/01/29 01:59:54;;;;;;;;;;;-2.40;99.90;;;;;;5045461;28;20081;-83
2023/01/29 02:10:41;;;;;;;;;;;-2.10;99.90;;;;;;5055727;28;19970;-82
2023/01/29 02:13:09;;;;;;;;;;;-2.10;99.90;;;;;;5056839;28;19990;-80
2023/01/29 02:15:36;;;;;;;;;;;-2.10;99.90;;;;;;5094802;28;19929;-80
2023/01/29 02:18:05;;;;;;;;;;;-2.10;99.90;;;;;;5084495;28;19925;-81
2023/01/29 02:20:31;;;;;;;;;;;-2.10;99.90;;;;;;5073505;28;19982;-80
2023/01/29 02:23:08;;;;;;;;;;;-1.30;99.90;;;;;;5072989;28;19978;-81
2023/01/29 02:25:52;;;;;;;;;;;-2.10;99.90;;;;;;5072037;28;19912;-79
2023/01/29 02:28:24;;;;;;;;;;;-2.10;99.90;;;;;;5032078;28;19925;-78
2023/01/29 02:30:54;;;;;;;;;;;-2.10;99.90;;;;;;5054916;28;19925;-80
2023/01/29 02:33:26;;;;;;;;;;;-2.10;99.90;;;;;;5086154;28;19947;-79
2023/01/29 02:35:56;;;;;;;;;;;-2.20;99.90;;;;;;5063107;28;19935;-80
2023/01/29 02:38:29;;;;;;;;;;;-2.10;99.90;;;;;;5059207;28;19931;-80
2023/01/29 02:40:57;;;;;;;;;;;-2.10;99.90;;;;;;5082313;28;19963;-80
2023/01/29 02:43:30;;;;;;;;;;;-2.10;99.90;;;;;;5063719;28;19982;-80
2023/01/29 02:46:01;;;;;;;;;;;-2.00;99.90;;;;;;5084318;28;19978;-80
2023/01/29 02:48:30;;;;;;;;;;;-2.00;99.90;;;;;;5082974;28;19932;-79
2023/01/29 02:50:58;;;;;;;;;;;-2.00;99.90;;;;;;5064815;28;19928;-79
2023/01/29 02:53:32;;;;;;;;;;;-2.00;99.90;;;;;;5067464;28;19972;-81
2023/01/29 02:56:02;;;;;;;;;;;-2.00;99.90;;;;;;5076691;28;19970;-80
2023/01/29 02:58:32;;;;;;;;;;;-2.10;99.90;;;;;;5073928;28;19920;-79
2023/01/29 03:01:01;;;;;;;;;;;-2.10;99.90;;;;;;5073878;28;20019;-80
2023/01/29 03:03:30;;;;;;;;;;;-2.10;99.90;;;;;;5095719;28;19995;-80
2023/01/29 03:06:05;;;;;;;;;;;-2.20;99.90;;;;;;5075712;28;19925;-81
2023/01/29 03:08:41;;;;;;;;;;;-2.20;99.90;;;;;;5070106;28;19925;-81
2023/01/29 03:11:12;;;;;;;;;;;-2.10;99.90;;;;;;5067448;28;19935;-81
2023/01/29 03:13:44;;;;;;;;;;;-2.20;99.90;;;;;;5064665;28;19960;-81
2023/01/29 03:16:14;;;;;;;;;;;-2.20;99.90;;;;;;5064401;28;19928;-81
2023/01/29 03:18:49;;;;;;;;;;;-2.10;99.90;;;;;;5063559;28;19924;-81
2023/01/29 03:32:39;;;;;;;;;;;-1.20;99.90;;;;;;5064154;28;19932;-80
2023/01/29 03:35:09;;;;;;;;;;;-2.10;99.90;;;;;;5086669;28;19991;-81
2023/01/29 03:37:39;;;;;;;;;;;-2.00;99.90;;;;;;5067089;28;19924;-81
2023/01/29 03:40:06;;;;;;;;;;;-2.00;99.90;;;;;;5057711;28;19925;-81
2023/01/29 03:42:38;;;;;;;;;;;-2.00;99.90;;;;;;5065865;28;19977;-81
2023/01/29 03:45:11;;;;;;;;;;;-2.00;99.90;;;;;;5084562;28;19925;-80
2023/01/29 03:47:45;;;;;;;;;;;-2.10;99.90;;;;;;5065522;28;20073;-81
2023/01/29 03:50:18;;;;;;;;;;;-2.10;99.90;;;;;;5053218;28;19935;-81
2023/01/29 03:52:46;;;;;;;;;;;-2.10;99.90;;;;;;5060218;28;19947;-81
2023/01/29 03:55:15;;;;;;;;;;;-2.10;99.90;;;;;;5069050;28;19931;-81
2023/01/29 03:57:44;;;;;;;;;;;-2.10;99.90;;;;;;5061793;28;19925;-81
2023/01/29 04:00:17;;;;;;;;;;;-2.10;99.90;;;;;;5056926;28;19932;-81
2023/01/29 04:02:58;;;;;;;;;;;-2.10;99.90;;;;;;5057532;28;19936;-81
2023/01/29 04:05:27;;;;;;;;;;;-2.10;99.90;;;;;;5060315;28;19929;-81
2023/01/29 04:08:09;;;;;;;;;;;-2.10;99.90;;;;;;5059295;28;19931;-81
2023/01/29 04:10:37;;;;;;;;;;;-2.10;99.90;;;;;;5056965;28;19929;-79
2023/01/29 04:13:07;;;;;;;;;;;-2.10;99.90;;;;;;5050139;28;20417;-79
2023/01/29 04:15:38;;;;;;;;;;;-2.10;99.90;;;;;;5044599;28;20290;-79
2023/01/29 04:18:05;;;;;;;;;;;-2.10;99.90;;;;;;5046733;28;20350;-80
2023/01/29 04:20:49;;;;;;;;;;;-2.10;99.90;;;;;;5048636;28;19934;-79
2023/01/29 04:23:20;;;;;;;;;;;-2.10;99.90;;;;;;5069128;28;19928;-80
2023/01/29 04:25:53;;;;;;;;;;;-2.10;99.90;;;;;;5050161;28;19924;-79
2023/01/29 04:28:22;;;;;;;;;;;-2.00;99.90;;;;;;5045542;28;20422;-80
2023/01/29 04:30:53;;;;;;;;;;;-2.00;99.90;;;;;;5042053;28;19929;-81
2023/01/29 04:33:26;;;;;;;;;;;-1.90;99.90;;;;;;5051581;28;19940;-81
2023/01/29 04:36:04;;;;;;;;;;;-1.90;99.90;;;;;;5050548;28;19947;-80
2023/01/29 04:38:35;;;;;;;;;;;-1.90;99.90;;;;;;5048762;28;19978;-80
2023/01/29 04:41:05;;;;;;;;;;;-0.90;99.90;;;;;;5062682;28;19933;-80
2023/01/29 04:43:35;;;;;;;;;;;-1.80;99.90;;;;;;5051051;28;19924;-80
2023/01/29 04:46:09;;;;;;;;;;;-1.70;99.90;;;;;;5051268;28;19935;-80
2023/01/29 04:48:40;;;;;;;;;;;-1.60;99.90;;;;;;5064862;28;19931;-80
2023/01/29 04:51:12;;;;;;;;;;;-1.50;99.90;;;;;;5068898;28;19932;-80
2023/01/29 04:53:42;;;;;;;;;;;-1.50;99.90;;;;;;5070638;28;19928;-80
2023/01/29 04:56:10;;;;;;;;;;;-1.40;99.90;;;;;;5064696;28;20390;-80
2023/01/29 04:58:39;;;;;;;;;;;-1.30;99.90;;;;;;5058867;28;19925;-80
2023/01/29 05:01:10;;;;;;;;;;;-1.20;99.90;;;;;;5074303;28;20409;-81
2023/01/29 05:03:37;;;;;;;;;;;-1.10;99.90;;;;;;5064348;28;20595;-81
2023/01/29 05:06:05;;;;;;;;;;;-1.10;99.90;;;;;;5071337;28;19931;-81
2023/01/29 05:08:32;;;;;;;;;;;-1.00;99.90;;;;;;5071502;28;19929;-81
2023/01/29 05:11:00;;;;;;;;;;;-0.90;99.90;;;;;;5063547;28;19944;-81
2023/01/29 05:13:28;;;;;;;;;;;-0.80;99.90;;;;;;5080733;28;20419;-81
2023/01/29 05:15:56;;;;;;;;;;;-0.80;99.90;;;;;;5049373;28;19929;-81
2023/01/29 05:18:25;;;;;;;;;;;-0.70;99.90;;;;;;5066768;28;19986;-81
2023/01/29 05:20:52;;;;;;;;;;;0.30;99.90;;;;;;5067961;28;19928;-81
2023/01/29 05:23:20;;;;;;;;;;;-0.60;99.90;;;;;;5064656;28;20455;-81
2023/01/29 05:25:46;;;;;;;;;;;-0.60;99.90;;;;;;5067965;28;19928;-81
2023/01/29 05:28:15;;;;;;;;;;;-0.60;99.90;;;;;;5066475;28;19928;-81
2023/01/29 05:30:42;;;;;;;;;;;-0.60;99.90;;;;;;5070926;28;19931;-81
2023/01/29 05:33:12;;;;;;;;;;;-0.50;99.90;;;;;;5070620;28;19982;-81
2023/01/29 05:35:40;;;;;;;;;;;-0.50;99.90;;;;;;5067760;28;19932;-81
2023/01/29 05:38:06;;;;;;;;;;;-0.50;99.90;;;;;;5070493;28;20394;-81
2023/01/29 05:40:33;;;;;;;;;;;-0.50;99.90;;;;;;5071594;28;19982;-81
2023/01/29 05:43:00;;;;;;;;;;;-0.50;99.90;;;;;;5067988;28;20421;-81
2023/01/29 05:45:27;;;;;;;;;;;-0.50;99.90;;;;;;5070830;28;19992;-81
2023/01/29 05:47:55;;;;;;;;;;;-0.40;99.90;;;;;;5051170;28;19928;-81
2023/01/29 05:50:22;;;;;;;;;;;-0.50;99.90;;;;;;5070526;28;19955;-81
2023/01/29 05:52:50;;;;;;;;;;;-0.40;99.90;;;;;;5048836;28;19932;-81
2023/01/29 05:55:17;;;;;;;;;;;-0.40;99.90;;;;;;5060839;28;19928;-81
2023/01/29 05:57:43;;;;;;;;;;;-0.40;99.90;;;;;;5068501;28;19939;-81
2023/01/29 06:00:11;;;;;;;;;;;-0.40;99.90;;;;;;5060638;28;19930;-81
2023/01/29 06:02:41;;;;;;;;;;;-0.40;99.90;;;;;;5071712;28;19924;-82
2023/01/29 06:05:08;;;;;;;;;;;-0.40;99.90;;;;;;5072574;28;20023;-81
2023/01/29 06:07:35;;;;;;;;;;;-0.30;99.90;;;;;;5070652;28;20417;-81
2023/01/29 06:10:03;;;;;;;;;;;-0.30;99.90;;;;;;5071712;28;20718;-81
2023/01/29 06:12:30;;;;;;;;;;;-0.30;99.90;;;;;;5068462;28;19932;-81
2023/01/29 06:14:56;;;;;;;;;;;-0.20;99.90;;;;;;5073093;28;19929;-81
2023/01/29 06:17:23;;;;;;;;;;;-0.10;99.90;;;;;;5071016;28;19925;-81
2023/01/29 06:19:50;;;;;;;;;;;-0.10;99.90;;;;;;5070895;28;19936;-81
2023/01/29 06:22:17;;;;;;;;;;;0.00;99.90;;;;;;5071575;28;19932;-81
2023/01/29 06:24:44;;;;;;;;;;;0.00;99.90;;;;;;5072136;28;19944;-81
2023/01/29 06:27:12;;;;;;;;;;;0.10;99.90;;;;;;5069757;28;19924;-81
2023/01/29 06:29:39;;;;;;;;;;;0.10;99.90;;;;;;5054463;28;19924;-82
2023/01/29 06:32:05;;;;;;;;;;;0.10;99.90;;;;;;5069980;28;19929;-82
2023/01/29 06:34:32;;;;;;;;;;;0.20;99.90;;;;;;5059524;28;19939;-80
2023/01/29 06:36:59;;;;;;;;;;;0.20;99.90;;;;;;5048282;28;19947;-82
2023/01/29 06:39:26;;;;;;;;;;;0.30;99.90;;;;;;5071027;28;19932;-80
2023/01/29 06:41:52;;;;;;;;;;;0.30;99.90;;;;;;5068866;28;19932;-80
2023/01/29 06:44:20;;;;;;;;;;;0.30;99.90;;;;;;5070509;28;20011;-81
2023/01/29 06:46:47;;;;;;;;;;;0.30;99.90;;;;;;5051282;28;20003;-80
2023/01/29 06:49:14;;;;;;;;;;;0.30;99.90;;;;;;5069540;28;20410;-80
2023/01/29 06:51:41;;;;;;;;;;;0.30;99.90;;;;;;5069752;28;19928;-80
2023/01/29 06:54:08;;;;;;;;;;;0.20;99.90;;;;;;5078320;28;19931;-81
2023/01/29 06:56:35;;;;;;;;;;;0.30;99.90;;;;;;5084503;28;19924;-80
2023/01/29 06:59:02;;;;;;;;;;;0.30;99.90;;;;;;5088314;28;19921;-81
2023/01/29 07:01:30;;;;;;;;;;;0.30;99.90;;;;;;5085393;28;19928;-81
2023/01/29 07:03:59;;;;;;;;;;;0.30;99.90;;;;;;5082524;28;19928;-80
2023/01/29 07:06:27;;;;;;;;;;;0.30;99.90;;;;;;5083403;28;19974;-80
2023/01/29 07:08:54;;;;;;;;;;;0.30;99.90;;;;;;5081091;28;19947;-80
2023/01/29 07:11:21;;;;;;;;;;;0.40;99.90;;;;;;5060821;28;19925;-81
2023/01/29 07:13:48;;;;;;;;;;;0.20;99.90;;;;;;5083141;28;20011;-81
2023/01/29 07:16:15;;;;;;;;;;;0.10;99.90;;;;;;5086685;28;19932;-80
2023/01/29 07:18:43;;;;;;;;;;;0.20;99.90;;;;;;5063720;28;19974;-80
2023/01/29 07:21:09;;;;;;;;;;;0.20;99.90;;;;;;5071838;28;19958;-80
2023/01/29 07:23:37;;;;;;;;;;;0.20;99.90;;;;;;5080178;28;19925;-80
2023/01/29 07:26:04;;;;;;;;;;;0.20;99.90;;;;;;5051991;28;20382;-80
2023/01/29 07:28:31;;;;;;;;;;;0.30;99.90;;;;;;5079061;28;19924;-80
2023/01/29 07:30:58;;;;;;;;;;;0.30;99.90;;;;;;5064900;28;19931;-80
2023/01/29 07:33:25;;;;;;;;;;;0.30;99.90;;;;;;5085050;28;20451;-80
2023/01/29 07:35:53;;;;;;;;;;;0.30;99.90;;;;;;5074020;28;19931;-82
2023/01/29 07:38:19;;;;;;;;;;;0.30;99.90;;;;;;5067538;28;19928;-83
2023/01/29 07:40:46;;;;;;;;;;;0.40;99.90;;;;;;5070788;28;19931;-83
2023/01/29 07:43:13;;;;;;;;;;;0.40;99.90;;;;;;5051901;28;20498;-82
2023/01/29 07:45:40;;;;;;;;;;;0.40;99.90;;;;;;5054103;28;19928;-83
2023/01/29 07:48:07;;;;;;;;;;;0.50;99.90;;;;;;5076860;28;20027;-83
2023/01/29 07:50:34;;;;;;;;;;;0.60;99.90;;;;;;5069708;28;19929;-82
2023/01/29 07:53:03;;;;;;;;;;;0.70;99.90;;;;;;5058246;28;19951;-83
2023/01/29 07:55:30;;;;;;;;;;;0.70;99.90;;;;;;5068973;28;19935;-83
2023/01/29 07:57:57;;;;;;;;;;;0.70;99.90;;;;;;5049931;28;19929;-84
2023/01/29 08:00:24;;;;;;;;;;;0.80;99.90;;;;;;5043808;28;19929;-83
2023/01/29 08:02:52;;;;;;;;;;;0.90;99.90;;;;;;5062334;28;20302;-84
2023/01/29 08:05:19;;;;;;;;;;;1.60;99.90;;;;;;5055564;28;20548;-84
2023/01/29 08:07:46;;;;;;;;;;;0.90;99.90;;;;;;5069615;28;19931;-84
2023/01/29 08:10:14;;;;;;;;;;;0.90;99.90;;;;;;5070737;28;19932;-83
2023/01/29 08:12:41;;;;;;;;;;;1.00;99.90;;;;;;5068717;28;19928;-84
2023/01/29 08:15:08;;;;;;;;;;;1.00;99.90;;;;;;5053863;28;20255;-84
2023/01/29 08:17:35;;;;;;;;;;;1.00;99.90;;;;;;5068882;28;19998;-83
2023/01/29 08:20:02;;;;;;;;;;;1.00;99.90;;;;;;5049509;28;19935;-84
2023/01/29 08:22:29;;;;;;;;;;;1.00;99.90;;;;;;5069388;28;19924;-84
2023/01/29 08:24:55;;;;;;;;;;;1.10;99.90;;;;;;5071438;28;19932;-84
2023/01/29 08:27:23;;;;;;;;;;;1.10;99.90;;;;;;5068324;28;19931;-83
2023/01/29 08:29:51;;;;;;;;;;;1.10;99.90;;;;;;5051619;28;19935;-84
2023/01/29 08:32:18;;;;;;;;;;;1.10;99.90;;;;;;5056995;28;19933;-85
2023/01/29 08:34:45;;;;;;;;;;;1.20;99.90;;;;;;5049434;28;20083;-87
2023/01/29 08:37:11;;;;;;;;;;;1.20;99.90;;;;;;5045448;28;19928;-83
2023/01/29 08:39:38;;;;;;;;;;;1.30;99.90;;;;;;5064970;28;19929;-84
2023/01/29 08:42:05;;;;;;;;;;;1.30;99.90;;;;;;5080090;28;19920;-84
2023/01/29 08:44:33;;;;;;;;;;;1.30;99.90;;;;;;5065619;28;19928;-84
2023/01/29 08:47:02;;;;;;;;;;;1.30;99.90;;;;;;5052503;28;20344;-85
2023/01/29 08:49:29;;;;;;;;;;;2.60;99.90;;;;;;5052823;28;19925;-87
2023/01/29 08:51:56;;;;;;;;;;;1.50;99.90;;;;;;5051792;28;19932;-84
2023/01/29 08:54:23;;;;;;;;;;;1.50;99.90;;;;;;5051605;28;19939;-86
2023/01/29 08:56:50;;;;;;;;;;;1.50;99.90;;;;;;5051390;28;20424;-86
2023/01/29 08:59:17;;;;;;;;;;;1.60;99.90;;;;;;5046675;28;19924;-87
2023/01/29 09:01:46;;;;;;;;;;;1.60;99.90;;;;;;5071057;28;19928;-86
2023/01/29 09:04:12;;;;;;;;;;;1.80;99.90;;;;;;5054377;28;19936;-85
2023/01/29 09:06:39;;;;;;;;;;;1.60;99.90;;;;;;5055470;28;19924;-85
2023/01/29 09:09:06;;;;;;;;;;;1.60;99.90;;;;;;5075568;28;19934;-83
2023/01/29 09:11:34;;;;;;;;;;;1.60;99.90;;;;;;5056161;28;19924;-85
2023/01/29 09:14:00;;;;;;;;;;;1.50;99.90;;;;;;5071991;28;19947;-85
2023/01/29 09:16:27;;;;;;;;;;;1.60;99.90;;;;;;5073076;28;19928;-84
2023/01/29 09:18:55;;;;;;;;;;;1.60;99.90;;;;;;5055058;28;19928;-85
2023/01/29 09:21:22;;;;;;;;;;;1.60;99.90;;;;;;5052110;28;19924;-85
2023/01/29 09:23:48;;;;;;;;;;;2.80;99.90;;;;;;5055376;28;19932;-86
2023/01/29 09:26:16;;;;;;;;;;;2.40;99.90;;;;;;5067677;28;20036;-85
2023/01/29 09:28:43;;;;;;;;;;;1.90;99.90;;;;;;5053363;28;19935;-85
2023/01/29 09:31:09;;;;;;;;;;;1.90;99.90;;;;;;5056411;28;20307;-85
2023/01/29 09:33:37;;;;;;;;;;;2.10;99.90;;;;;;5056894;28;19924;-86
2023/01/29 09:36:11;;;;;;;;;;;2.10;99.90;;;;;;5055342;28;20632;-86
2023/01/29 09:38:38;;;;;;;;;;;2.20;99.90;;;;;;5050897;28;19984;-86
2023/01/29 09:41:08;;;;;;;;;;;2.30;99.90;;;;;;5050783;28;19928;-85
2023/01/29 09:43:40;;;;;;;;;;;2.30;99.90;;;;;;5076477;28;19933;-86
2023/01/29 09:46:13;;;;;;;;;;;2.40;99.90;;;;;;5056227;28;19928;-87
2023/01/29 09:48:41;;;;;;;;;;;2.30;99.90;;;;;;5056189;28;20674;-85
2023/01/29 09:51:15;;;;;;;;;;;2.30;99.90;;;;;;5074781;28;19925;-85
2023/01/29 09:53:46;;;;;;;;;;;2.40;99.90;;;;;;5055529;28;19932;-85
2023/01/29 09:56:14;;;;;;;;;;;2.40;99.90;;;;;;5054899;28;19925;-86
2023/01/29 09:58:42;;;;;;;;;;;2.20;99.90;;;;;;5055502;28;20179;-84
2023/01/29 10:01:12;;;;;;;;;;;2.50;99.90;;;;;;5056803;28;19924;-85
2023/01/29 10:03:54;;;;;;;;;;;2.60;99.90;;;;;;5047916;28;19936;-84
2023/01/29 10:06:28;;;;;;;;;;;2.70;99.90;;;;;;5060971;28;19924;-85
2023/01/29 10:09:07;;;;;;;;;;;2.60;99.90;;;;;;5055822;28;20168;-84
2023/01/29 10:11:38;;;;;;;;;;;2.60;99.90;;;;;;5055029;28;20021;-82
2023/01/29 10:14:11;;;;;;;;;;;2.70;99.90;;;;;;5071122;28;19933;-81
2023/01/29 10:16:44;;;;;;;;;;;2.70;99.90;;;;;;5055351;28;20039;-81
2023/01/29 10:19:26;;;;;;;;;;;2.80;99.90;;;;;;5074621;28;19975;-82
2023/01/29 10:21:59;;;;;;;;;;;3.00;99.90;;;;;;5056033;28;19932;-81
2023/01/29 10:24:29;;;;;;;;;;;2.90;99.90;;;;;;5078888;28;19935;-81
2023/01/29 10:26:57;;;;;;;;;;;3.00;99.90;;;;;;5079795;28;19932;-81
2023/01/29 10:29:25;;;;;;;;;;;3.10;99.90;;;;;;5086805;28;19917;-82
2023/01/29 10:31:54;;;;;;;;;;;3.20;99.90;;;;;;5085353;28;19967;-82
2023/01/29 10:34:25;;;;;;;;;;;3.10;99.90;;;;;;5080698;28;19935;-81
2023/01/29 10:36:54;;;;;;;;;;;3.20;99.90;;;;;;5065236;28;20031;-80
2023/01/29 10:39:23;;;;;;;;;;;3.30;99.90;;;;;;5063899;28;19928;-81
2023/01/29 10:41:50;;;;;;;;;;;;;;;;;;5079751;28;20030;-81
2023/01/29 10:44:22;;;;;;;;;;;3.30;99.90;;;;;;5078944;28;19984;-80
2023/01/29 10:46:55;;;;;;;;;;;3.40;99.90;;;;;;5082343;28;19935;-80
2023/01/29 10:49:28;;;;;;;;;;;3.40;99.90;;;;;;5074102;28;19940;-82
2023/01/29 10:52:04;;;;;;;;;;;3.40;99.90;;;;;;5084530;28;19938;-81
2023/01/29 10:54:43;;;;;;;;;;;3.50;99.90;;;;;;5087470;28;20398;-81
2023/01/29 10:57:21;;;;;;;;;;;3.50;99.90;;;;;;5063908;28;19943;-81
2023/01/29 10:59:53;;;;;;;;;;;3.40;99.90;;;;;;5084280;28;20010;-82
2023/01/29 11:02:21;;;;;;;;;;;2.10;99.90;;;;;;5080643;28;19928;-79
2023/01/29 11:04:48;;;;;;;;;;;3.40;99.90;;;;;;5078466;28;20019;-80
2023/01/29 11:07:16;;;;;;;;;;;3.40;99.90;;;;;;5060832;28;19955;-80
2023/01/29 11:09:46;;;;;;;;;;;3.50;99.90;;;;;;5072173;28;19960;-80
2023/01/29 11:12:13;;;;;;;;;;;3.50;99.90;;;;;;5087574;28;19980;-87
2023/01/29 11:14:46;;;;;;;;;;;3.60;99.90;;;;;;5085681;28;19998;-85
2023/01/29 11:17:16;;;;;;;;;;;3.60;99.90;;;;;;5065396;28;19927;-85
2023/01/29 11:19:44;;;;;;;;;;;3.70;99.90;;;;;;5084931;28;19955;-84
2023/01/29 11:22:13;;;;;;;;;;;3.60;99.90;;;;;;5065672;28;20013;-86
2023/01/29 11:24:40;;;;;;;;;;;3.10;99.90;;;;;;5069644;28;19925;-86
2023/01/29 11:27:24;;;;;;;;;;;3.40;99.90;;;;;;5059143;28;20040;-84
2023/01/29 11:29:53;;;;;;;;;;;3.40;99.90;;;;;;5048198;28;19928;-84
2023/01/29 11:32:33;;;;;;;;;;;3.40;99.90;;;;;;5055544;28;19934;-86
2023/01/29 11:35:03;;;;;;;;;;;3.40;99.90;;;;;;5074423;28;20006;-84
2023/01/29 11:37:36;;;;;;;;;;;3.40;99.90;;;;;;5076171;28;19969;-84
2023/01/29 11:40:21;;;;;;;;;;;3.90;99.90;;;;;;5082047;28;19935;-83
2023/01/29 11:42:53;;;;;;;;;;;3.50;99.90;;;;;;5047195;28;20386;-83
2023/01/29 11:45:26;;;;;;;;;;;3.50;99.90;;;;;;5053922;28;19936;-82
2023/01/29 11:47:56;;;;;;;;;;;4.60;99.90;;;;;;5076821;28;19951;-83
2023/01/29 11:50:25;;;;;;;;;;;3.70;99.90;;;;;;5058052;28;20466;-82
2023/01/29 11:52:52;;;;;;;;;;;3.70;99.90;;;;;;5061328;28;19932;-83
2023/01/29 11:55:22;;;;;;;;;;;3.70;99.90;;;;;;5086185;28;19935;-84
2023/01/29 11:57:53;;;;;;;;;;;3.60;99.90;;;;;;5087020;28;19939;-84
2023/01/29 12:00:22;;;;;;;;;;;3.60;99.90;;;;;;5072321;28;19958;-83
2023/01/29 12:02:53;;;;;;;;;;;3.60;99.90;;;;;;5074790;28;19980;-84
2023/01/29 12:05:21;;;;;;;;;;;3.70;99.90;;;;;;5075078;28;19999;-84
2023/01/29 12:07:49;;;;;;;;;;;3.70;99.90;;;;;;5053160;28;19928;-83
2023/01/29 12:10:30;;;;;;;;;;;3.00;99.90;;;;;;5056390;28;19924;-83
2023/01/29 12:13:05;;;;;;;;;;;3.80;99.90;;;;;;5075720;28;19935;-83
2023/01/29 12:15:33;;;;;;;;;;;3.80;99.90;;;;;;5057609;28;20309;-83
2023/01/29 12:18:02;;;;;;;;;;;3.80;99.90;;;;;;5074126;28;19928;-84
2023/01/29 12:20:33;;;;;;;;;;;3.80;99.90;;;;;;5054253;28;20031;-84
2023/01/29 12:23:03;;;;;;;;;;;3.90;99.90;;;;;;5073456;28;19935;-84
2023/01/29 12:25:38;;;;;;;;;;;3.90;99.90;;;;;;5063126;28;19928;-84
2023/01/29 12:28:10;;;;;;;;;;;4.00;99.90;;;;;;5054778;28;19925;-86
2023/01/29 12:30:40;;;;;;;;;;;4.00;99.90;;;;;;5058150;28;19924;-88
2023/01/29 12:33:14;;;;;;;;;;;4.20;99.90;;;;;;5056729;28;20356;-86
2023/01/29 12:35:43;;;;;;;;;;;4.20;99.90;;;;;;5046527;28;20411;-86
2023/01/29 12:38:12;;;;;;;;;;;4.20;99.90;;;;;;5043570;28;19998;-85
2023/01/29 12:40:41;;;;;;;;;;;4.30;99.90;;;;;;5061043;28;19944;-86
2023/01/29 12:43:13;;;;;;;;;;;4.40;99.90;;;;;;5088504;28;19920;-87
2023/01/29 12:45:42;;;;;;;;;;;4.40;99.90;;;;;;5079790;28;19917;-86
2023/01/29 12:48:12;;;;;;;;;;;4.40;99.90;;;;;;5097419;28;19913;-85
2023/01/29 12:50:40;;;;;;;;;;;4.50;99.90;;;;;;5080090;28;19996;-86
2023/01/29 12:53:22;;;;;;;;;;;4.50;99.90;;;;;;5079724;28;19923;-87
2023/01/29 12:55:54;;;;;;;;;;;4.60;99.90;;;;;;5098315;28;19917;-87
2023/01/29 12:58:28;;;;;;;;;;;4.50;99.90;;;;;;5080280;28;19930;-87
2023/01/29 13:00:57;;;;;;;;;;;4.50;99.90;;;;;;5080314;28;19938;-84
2023/01/29 13:03:26;;;;;;;;;;;4.50;99.90;;;;;;5088258;28;19924;-83
2023/01/29 13:05:55;;;;;;;;;;;4.50;99.90;;;;;;5077298;28;19974;-82
2023/01/29 13:08:25;;;;;;;;;;;4.50;99.90;;;;;;5046952;28;19928;-83
2023/01/29 13:10:53;;;;;;;;;;;4.50;99.90;;;;;;5072605;28;19929;-84
2023/01/29 13:13:24;;;;;;;;;;;4.60;99.90;;;;;;5072955;28;19928;-82
2023/01/29 13:15:52;;;;;;;;;;;4.60;99.90;;;;;;5054751;28;19939;-84
2023/01/29 13:18:40;;;;;;;;;;;4.60;99.90;;;;;;5052299;28;19925;-83
2023/01/29 13:21:10;;;;;;;;;;;4.60;99.90;;;;;;5064695;28;19928;-84
2023/01/29 13:23:39;;;;;;;;;;;4.60;99.90;;;;;;5044971;28;19959;-84
2023/01/29 13:26:06;;;;;;;;;;;4.50;99.90;;;;;;5057664;28;19935;-84
2023/01/29 13:28:32;;;;;;;;;;;4.60;99.90;;;;;;5054762;28;19978;-83
2023/01/29 13:31:17;;;;;;;;;;;4.60;99.90;;;;;;5053795;28;19924;-83
2023/01/29 13:33:51;;;;;;;;;;;4.60;99.90;;;;;;5071950;28;19925;-82
2023/01/29 13:36:22;;;;;;;;;;;4.40;99.90;;;;;;5054498;28;19928;-83
2023/01/29 13:38:54;;;;;;;;;;;4.50;99.90;;;;;;5072744;28;19936;-83
2023/01/29 13:41:31;;;;;;;;;;;4.10;99.90;;;;;;5055151;28;19940;-84
2023/01/29 13:43:58;;;;;;;;;;;4.40;99.90;;;;;;5074538;28;19925;-83
2023/01/29 13:46:30;;;;;;;;;;;4.40;99.90;;;;;;5058871;28;19936;-83
2023/01/29 13:49:03;;;;;;;;;;;4.50;99.90;;;;;;5062420;28;19939;-84
2023/01/29 13:51:34;;;;;;;;;;;4.70;99.90;;;;;;5056624;28;20378;-84
2023/01/29 13:54:03;;;;;;;;;;;4.40;99.90;;;;;;5061582;28;19928;-83
2023/01/29 13:56:41;;;;;;;;;;;4.40;99.90;;;;;;5078840;28;19954;-84
2023/01/29 13:59:21;;;;;;;;;;;4.40;99.90;;;;;;5050871;28;19924;-84
2023/01/29 14:02:20;;;;;;;;;;;4.40;99.90;;;;;;5060407;28;19924;-83
2023/01/29 14:04:47;;;;;;;;;;;4.40;99.90;;;;;;5055445;28;19929;-83
2023/01/29 14:07:35;;;;;;;;;;;4.30;99.90;;;;;;5040383;28;19946;-86
2023/01/29 14:10:08;;;;;;;;;;;4.20;99.90;;;;;;5060227;28;20378;-85
2023/01/29 14:12:46;;;;;;;;;;;4.20;99.90;;;;;;5050796;28;19937;-85
2023/01/29 14:15:18;;;;;;;;;;;3.70;99.90;;;;;;5049867;28;19929;-85
2023/01/29 14:17:56;;;;;;;;;;;4.10;99.90;;;;;;5078865;28;20049;-85
2023/01/29 14:20:31;;;;;;;;;;;4.10;99.90;;;;;;5075291;28;19935;-85
2023/01/29 14:23:00;;;;;;;;;;;4.10;99.90;;;;;;5059701;28;20337;-85
2023/01/29 14:25:29;;;;;;;;;;;4.10;99.90;;;;;;5076434;28;19928;-86
2023/01/29 14:27:56;;;;;;;;;;;4.10;99.90;;;;;;5076735;28;19932;-84
2023/01/29 14:30:24;;;;;;;;;;;4.00;99.90;;;;;;5067724;28;19932;-84
2023/01/29 14:33:05;;;;;;;;;;;4.10;99.90;;;;;;5078000;28;19999;-86
2023/01/29 14:35:37;;;;;;;;;;;4.10;99.90;;;;;;5060757;28;20506;-84
2023/01/29 14:38:17;;;;;;;;;;;4.10;99.90;;;;;;5077424;28;19928;-85
2023/01/29 14:40:47;;;;;;;;;;;4.00;99.90;;;;;;5058718;28;19929;-85
2023/01/29 14:43:18;;;;;;;;;;;4.00;99.90;;;;;;5074801;28;19928;-84
2023/01/29 14:45:50;;;;;;;;;;;4.00;99.90;;;;;;5073944;28;19929;-84
2023/01/29 14:48:40;;;;;;;;;;;4.00;99.90;;;;;;5077128;28;19940;-85
2023/01/29 14:51:12;;;;;;;;;;;3.90;99.90;;;;;;5065603;28;19933;-85
2023/01/29 14:54:00;;;;;;;;;;;3.90;99.90;;;;;;5070891;28;19979;-85
2023/01/29 14:56:36;;;;;;;;;;;3.90;99.90;;;;;;5057071;28;20413;-85
2023/01/29 14:59:14;;;;;;;;;;;3.90;99.90;;;;;;5065837;28;20302;-82
2023/01/29 15:01:45;;;;;;;;;;;3.90;99.90;;;;;;5050963;28;19924;-82
2023/01/29 15:04:14;;;;;;;;;;;4.80;99.90;;;;;;5064166;28;20698;-82
2023/01/29 15:06:45;;;;;;;;;;;3.90;99.90;;;;;;5070482;28;20034;-84
2023/01/29 15:09:15;;;;;;;;;;;3.90;99.90;;;;;;5052020;28;21624;-82